Grant Town, WV (26574)

1:21 PM EDT on August 27, 2016 (GMT -0400)
Arnettsville | | Change Station

Elev 1188 ft 39.59 °N, 80.09 °W | Updated 13 minutes ago

Scattered Clouds
Scattered Clouds
95.7 °F
Feels Like 104 °F
N
2.7
Wind Variable Wind from West

Today
High -- | Low -- °F
--% Chance of Precip.
Yesterday
High -- | Low -- °F
Precip. -- in
Pressure 30.14 in
Visibility 10.0 miles
Clouds Few 3500 ft
Scattered Clouds 25000 ft
Heat Index 104 °F
Dew Point 72 °F
Humidity 46%
Rainfall 0.00 in
Snow Depth Not available.
6:44 AM 7:58 PM
Waning Crescent, 23% visible
METAR KMGW 271653Z VRB04KT 10SM FEW035 SCT250 31/21 A3018 RMK AO2 SLP207 T03060206
Pressure 30.14 in
Visibility 10.0 miles
Clouds Few 3500 ft
Scattered Clouds 25000 ft
Heat Index 104 °F
Dew Point 72 °F
Humidity 46%
Rainfall 0.00 in
Snow Depth Not available.
6:44 AM 7:58 PM
Waning Crescent, 23% visible
METAR KMGW 271653Z VRB04KT 10SM FEW035 SCT250 31/21 A3018 RMK AO2 SLP207 T03060206

10-Day Weather Forecast

Almanac

Astronomy

Aug. 27, 2016 Rise Set
Actual Time
Civil Twilight
Nautical Twilight
Astronomical Twilight
Moon
Length of Visible Light
Length of Day
Tomorrow will be .
, % of the Moon is Illuminated

Today's Extremes

State Highs State Lows

Community

WunderPhotos

Upload Photos

1,935,387 photos uploaded!

WunderBlog® & News

Nearby

Air Quality

  Air Quality AQ Index Pollutant
Not available.

Snow Depth

Station Depth Elevation

Earthquake Activity

City Distance Mag. Time & Date
Minimum magnitude displayed is 2.5.

Coastal Water Temperatures

Place Temperature

Stations

Nearby Weather Stations

Station Location Temp. Windchill Dew Point Humidity Wind Precip. Elev Updated Type
                   

Watches & Warnings

There are currently no watches in effect.